Time;durP1;ratioP1;P1;durP2;ratioP2;P2;SDS_P1;SDS_P2;PMS_P1;PMS_P2;Temp;Humidity;BMP_temperature;BMP_pressure;BME280_temperature;BME280_humidity;BME280_pressure;Samples;Min_cycle;Max_cycle;Signal;HPM_P1;HPM_P2
2023/01/14 00:01:43;;;;;;;0.50;0.50;;;6.70;99.90;;;;;;4971883;28;20400;-85
2023/01/14 00:04:09;;;;;;;0.47;0.47;;;6.70;99.90;;;;;;4959730;28;20053;-83
2023/01/14 00:06:35;;;;;;;0.60;0.60;;;6.60;99.90;;;;;;4989451;28;20042;-86
2023/01/14 00:09:05;;;;;;;0.40;0.40;;;6.60;99.90;;;;;;4992871;28;20042;-84
2023/01/14 00:11:46;;;;;;;0.50;0.50;;;6.50;99.90;;;;;;4977029;28;20034;-85
2023/01/14 00:14:21;;;;;;;0.50;0.50;;;6.50;99.90;;;;;;4975760;28;20462;-85
2023/01/14 00:16:48;;;;;;;5.82;0.80;;;6.60;99.90;;;;;;4972770;28;20046;-85
2023/01/14 00:19:15;;;;;;;0.50;0.50;;;6.60;99.90;;;;;;4961501;28;20042;-84
2023/01/14 00:21:43;;;;;;;0.52;0.52;;;6.60;99.90;;;;;;4972022;28;20054;-85
2023/01/14 00:24:09;;;;;;;0.57;0.57;;;6.70;99.90;;;;;;4988671;28;20496;-85
2023/01/14 00:26:35;;;;;;;0.50;0.50;;;6.70;99.90;;;;;;4988879;28;20124;-82
2023/01/14 00:29:01;;;;;;;0.57;0.57;;;6.80;99.90;;;;;;4975181;28;20093;-84
2023/01/14 00:31:28;;;;;;;0.57;0.57;;;6.80;99.90;;;;;;4988354;28;20498;-84
2023/01/14 00:33:55;;;;;;;0.40;0.40;;;6.80;99.90;;;;;;4992033;28;20034;-86
2023/01/14 00:36:22;;;;;;;0.60;0.60;;;6.80;99.90;;;;;;5015821;28;20038;-83
2023/01/14 00:38:48;;;;;;;0.50;0.50;;;6.70;99.90;;;;;;4980529;28;20126;-85
2023/01/14 00:41:21;;;;;;;0.60;0.60;;;6.60;99.90;;;;;;5003878;28;20070;-83
2023/01/14 00:43:49;;;;;;;0.50;0.50;;;6.60;99.90;;;;;;5003630;28;20055;-83
2023/01/14 00:46:18;;;;;;;0.40;0.40;;;6.60;99.90;;;;;;4988127;28;20404;-85
2023/01/14 00:48:44;;;;;;;0.70;0.70;;;6.60;99.90;;;;;;4991668;28;20085;-88
2023/01/14 00:51:11;;;;;;;0.40;0.40;;;6.60;99.90;;;;;;4994708;28;20077;-86
2023/01/14 00:53:38;;;;;;;0.60;0.60;;;6.60;99.90;;;;;;4977881;28;20121;-87
2023/01/14 00:56:05;;;;;;;0.22;0.22;;;6.50;99.90;;;;;;4970883;28;20062;-83
2023/01/14 00:58:31;;;;;;;0.50;0.50;;;6.50;99.90;;;;;;4989851;28;20046;-85
2023/01/14 01:00:58;;;;;;;0.65;0.65;;;6.60;99.90;;;;;;4987672;28;20046;-84
2023/01/14 01:03:24;;;;;;;0.45;0.45;;;6.50;99.90;;;;;;4971393;28;20085;-87
2023/01/14 01:05:51;;;;;;;0.47;0.47;;;6.50;99.90;;;;;;4987883;28;20049;-84
2023/01/14 01:08:18;;;;;;;;;;;6.50;99.90;;;;;;4985774;28;20053;-86
2023/01/14 01:10:49;;;;;;;0.40;0.40;;;6.60;99.90;;;;;;4989741;28;20362;-85
2023/01/14 01:13:15;;;;;;;0.32;0.32;;;6.60;99.90;;;;;;4989151;28;20053;-86
2023/01/14 01:15:41;;;;;;;0.40;0.40;;;6.60;99.90;;;;;;4955028;28;20121;-86
2023/01/14 01:18:09;;;;;;;0.55;0.55;;;6.60;99.90;;;;;;4987260;28;20125;-86
2023/01/14 01:20:36;;;;;;;0.50;0.50;;;6.60;99.90;;;;;;4990024;28;20042;-85
2023/01/14 01:23:02;;;;;;;0.60;0.60;;;6.70;99.90;;;;;;4990873;28;20122;-86
2023/01/14 01:25:28;;;;;;;;;;;6.70;99.90;;;;;;5006480;28;20078;-84
2023/01/14 01:27:54;;;;;;;0.55;0.55;;;6.70;99.90;;;;;;4971419;28;19921;-84
2023/01/14 01:30:20;;;;;;;0.40;0.40;;;6.80;99.90;;;;;;4981822;28;20182;-82
2023/01/14 01:32:46;;;;;;;;;;;6.80;99.90;;;;;;4970978;28;20042;-84
2023/01/14 01:35:11;;;;;;;0.40;0.40;;;6.70;99.90;;;;;;4986795;28;19940;-83
2023/01/14 01:37:37;;;;;;;0.30;0.30;;;6.70;99.90;;;;;;4986671;28;20121;-83
2023/01/14 01:40:04;;;;;;;0.60;0.60;;;6.70;99.90;;;;;;4987181;28;20034;-82
2023/01/14 01:42:33;;;;;;;0.50;0.50;;;6.60;99.90;;;;;;4987091;28;20038;-82
2023/01/14 01:45:40;;;;;;;0.47;0.47;;;6.60;99.90;;;;;;4993795;28;20054;-83
2023/01/14 01:48:42;;;;;;;0.52;0.52;;;6.60;99.90;;;;;;4988099;28;20054;-84
2023/01/14 01:51:18;;;;;;;0.40;0.40;;;6.70;99.90;;;;;;4963740;28;20133;-82
2023/01/14 01:53:48;;;;;;;0.50;0.50;;;6.80;99.90;;;;;;4988003;28;20046;-83
2023/01/14 01:56:27;;;;;;;0.40;0.40;;;6.90;99.90;;;;;;4987829;28;20050;-82
2023/01/14 01:58:55;;;;;;;0.50;0.50;;;6.70;99.90;;;;;;4983721;28;20057;-82
2023/01/14 02:01:21;;;;;;;0.50;0.50;;;6.80;99.90;;;;;;4986096;28;20121;-83
2023/01/14 02:03:48;;;;;;;0.50;0.50;;;6.70;99.90;;;;;;4986498;28;20125;-84
2023/01/14 02:06:15;;;;;;;0.50;0.50;;;6.70;99.90;;;;;;4985832;28;20038;-83
2023/01/14 02:08:45;;;;;;;0.47;0.47;;;6.60;99.90;;;;;;4989525;28;20046;-82
2023/01/14 02:11:19;;;;;;;0.50;0.50;;;6.50;99.90;;;;;;5003031;28;20050;-83
2023/01/14 02:13:52;;;;;;;0.50;0.50;;;6.50;99.90;;;;;;4989117;28;20042;-81
2023/01/14 02:16:50;;;;;;;0.52;0.52;;;6.40;99.90;;;;;;5006534;28;20050;-82
2023/01/14 02:19:17;;;;;;;;;;;6.30;99.90;;;;;;4979211;28;20085;-84
2023/01/14 02:22:12;;;;;;;0.50;0.50;;;6.20;99.90;;;;;;4975654;28;19925;-85
2023/01/14 02:24:58;;;;;;;0.60;0.60;;;6.10;99.90;;;;;;4979988;28;20512;-82
2023/01/14 02:27:38;;;;;;;0.50;0.50;;;6.10;99.90;;;;;;4991624;28;21568;-81
2023/01/14 02:30:10;;;;;;;0.60;0.60;;;6.10;99.90;;;;;;4991684;28;20429;-83
2023/01/14 02:32:41;;;;;;;0.57;0.57;;;6.10;99.90;;;;;;4990577;28;20499;-83
2023/01/14 02:35:21;;;;;;;0.50;0.50;;;6.10;99.90;;;;;;4989180;28;20053;-82
2023/01/14 02:38:02;;;;;;;0.50;0.50;;;6.10;99.90;;;;;;4989732;28;20361;-84
2023/01/14 02:40:35;;;;;;;0.50;0.50;;;6.00;99.90;;;;;;4990498;28;20118;-84
2023/01/14 02:46:25;;;;;;;0.40;0.40;;;5.90;99.90;;;;;;4992811;28;20057;-84
2023/01/14 02:48:53;;;;;;;0.70;0.70;;;5.90;99.90;;;;;;5009875;28;20045;-84
2023/01/14 02:51:20;;;;;;;0.60;0.60;;;5.90;99.90;;;;;;4991776;28;20066;-83
2023/01/14 02:53:48;;;;;;;0.50;0.50;;;5.90;99.90;;;;;;4996938;28;20038;-83
2023/01/14 02:56:15;;;;;;;0.60;0.60;;;6.00;99.90;;;;;;4969076;28;20042;-83
2023/01/14 02:59:06;;;;;;;;;;;5.70;99.90;;;;;;4990903;28;20099;-82
2023/01/14 03:01:35;;;;;;;0.50;0.50;;;5.70;99.90;;;;;;4969883;28;20371;-82
2023/01/14 03:04:28;;;;;;;0.52;0.52;;;5.70;99.90;;;;;;4991664;28;20049;-83
2023/01/14 03:07:22;;;;;;;0.70;0.70;;;5.70;99.90;;;;;;4992257;28;20113;-82
2023/01/14 03:10:05;;;;;;;0.57;0.57;;;5.80;99.90;;;;;;4992575;28;20085;-83
2023/01/14 03:12:46;;;;;;;0.70;0.70;;;5.90;99.90;;;;;;4989888;28;20042;-85
2023/01/14 03:15:33;;;;;;;1.10;0.93;;;6.00;99.90;;;;;;5005604;28;20138;-84
2023/01/14 03:18:05;;;;;;;;;;;6.00;99.90;;;;;;5006075;28;20050;-85
2023/01/14 03:20:34;;;;;;;0.52;0.52;;;6.00;99.90;;;;;;4990319;28;19971;-86
2023/01/14 03:23:06;;;;;;;0.60;0.60;;;6.10;99.90;;;;;;4990108;28;20428;-85
2023/01/14 03:25:35;;;;;;;0.70;0.70;;;6.00;99.90;;;;;;4989400;28;20053;-86
2023/01/14 03:28:03;;;;;;;0.43;0.43;;;6.00;99.90;;;;;;4992133;28;20084;-85
2023/01/14 03:30:37;;;;;;;0.52;0.52;;;6.10;99.90;;;;;;4996072;28;20053;-83
2023/01/14 03:33:10;;;;;;;0.60;0.60;;;6.30;99.90;;;;;;4973618;28;20030;-84
2023/01/14 03:35:39;;;;;;;0.70;0.40;;;6.00;99.90;;;;;;4990190;28;20433;-83
2023/01/14 03:38:19;;;;;;;0.40;0.40;;;6.00;99.90;;;;;;4972497;28;20042;-85
2023/01/14 03:40:48;;;;;;;0.47;0.47;;;6.00;99.90;;;;;;4990339;28;20053;-81
2023/01/14 03:43:39;;;;;;;0.60;0.60;;;5.80;99.90;;;;;;5006301;28;20452;-82
2023/01/14 03:46:05;;;;;;;0.50;0.50;;;5.80;99.90;;;;;;4973906;28;20050;-84
2023/01/14 03:48:31;;;;;;;0.40;0.40;;;5.80;99.90;;;;;;4989678;28;20050;-82
2023/01/14 03:51:22;;;;;;;0.60;0.60;;;5.70;99.90;;;;;;4992484;28;20045;-81
2023/01/14 03:54:28;;;;;;;0.60;0.60;;;5.60;99.90;;;;;;4998998;28;20081;-83
2023/01/14 03:56:56;;;;;;;0.52;0.52;;;5.60;99.90;;;;;;4977181;28;20132;-84
2023/01/14 03:59:50;;;;;;;0.70;0.70;;;5.50;99.90;;;;;;4969200;28;20042;-82
2023/01/14 04:02:17;;;;;;;0.68;0.68;;;5.50;99.90;;;;;;4981989;28;20038;-82
2023/01/14 04:04:44;;;;;;;0.60;0.60;;;5.40;99.90;;;;;;4970370;28;20586;-84
2023/01/14 04:07:10;;;;;;;0.60;0.60;;;5.40;99.90;;;;;;4988529;28;20113;-84
2023/01/14 04:09:35;;;;;;;0.60;0.60;;;5.30;99.90;;;;;;4988016;28;20038;-84
2023/01/14 04:12:01;;;;;;;0.50;0.50;;;5.20;99.90;;;;;;4969506;28;20108;-83
2023/01/14 04:17:11;;;;;;;0.57;0.57;;;5.30;99.90;;;;;;4987972;28;20050;-83
2023/01/14 04:19:37;;;;;;;0.60;0.60;;;5.30;99.90;;;;;;4996000;28;20250;-83
2023/01/14 04:22:03;;;;;;;0.45;0.45;;;5.30;99.90;;;;;;4984675;28;20053;-86
2023/01/14 04:24:28;;;;;;;0.60;0.60;;;5.40;99.90;;;;;;5002659;28;20172;-85
2023/01/14 04:26:54;;;;;;;1.10;1.10;;;5.60;99.90;;;;;;4989992;28;20046;-83
2023/01/14 04:29:20;;;;;;;0.60;0.60;;;5.20;99.90;;;;;;4991180;28;20046;-81
2023/01/14 04:31:45;;;;;;;0.50;0.50;;;5.20;99.90;;;;;;4971558;28;20043;-81
2023/01/14 04:34:11;;;;;;;0.88;0.88;;;5.10;99.90;;;;;;4989195;28;20045;-85
2023/01/14 04:36:37;;;;;;;0.60;0.60;;;5.10;99.90;;;;;;4986828;28;20046;-84
2023/01/14 04:39:03;;;;;;;0.60;0.60;;;5.10;99.90;;;;;;4990248;28;20081;-84
2023/01/14 04:44:12;;;;;;;0.50;0.50;;;5.10;99.90;;;;;;4985612;28;20154;-83
2023/01/14 04:46:38;;;;;;;0.60;0.60;;;5.10;99.90;;;;;;5007733;28;20129;-86
2023/01/14 04:49:03;;;;;;;0.60;0.60;;;5.70;99.90;;;;;;4971627;28;20049;-83
2023/01/14 04:51:29;;;;;;;2.85;1.25;;;5.00;99.90;;;;;;4971328;28;20034;-83
2023/01/14 04:53:55;;;;;;;0.60;0.60;;;5.00;99.90;;;;;;4973222;28;20042;-83
2023/01/14 04:56:20;;;;;;;0.50;0.50;;;5.00;99.90;;;;;;4973104;28;20046;-85
2023/01/14 04:58:47;;;;;;;0.63;0.63;;;5.00;99.90;;;;;;4988381;28;20132;-84
2023/01/14 05:01:12;;;;;;;;;;;5.00;99.90;;;;;;4993453;28;20129;-83
2023/01/14 05:03:38;;;;;;;0.50;0.50;;;5.00;99.90;;;;;;4985736;28;20021;-84
2023/01/14 05:06:04;;;;;;;0.80;0.80;;;5.10;99.90;;;;;;4990348;28;20057;-83
2023/01/14 05:08:30;;;;;;;0.60;0.60;;;5.00;99.90;;;;;;4986865;28;20046;-84
2023/01/14 05:10:56;;;;;;;0.60;0.60;;;5.00;99.90;;;;;;4988562;28;20148;-83
2023/01/14 05:13:23;;;;;;;0.50;0.50;;;5.00;99.90;;;;;;4975571;28;20054;-82
2023/01/14 05:15:48;;;;;;;0.50;0.50;;;5.00;99.90;;;;;;4990741;28;20445;-86
2023/01/14 05:18:16;;;;;;;0.57;0.57;;;5.20;99.90;;;;;;5003040;28;20081;-85
2023/01/14 05:20:43;;;;;;;0.50;0.50;;;5.10;99.90;;;;;;4972904;28;20046;-84
2023/01/14 05:23:14;;;;;;;0.60;0.60;;;5.10;99.90;;;;;;4984379;28;20374;-83
2023/01/14 05:25:40;;;;;;;0.50;0.50;;;5.20;99.90;;;;;;4986816;28;20077;-84
2023/01/14 05:28:09;;;;;;;0.63;0.63;;;5.10;99.90;;;;;;4983999;28;20078;-84
2023/01/14 05:30:35;;;;;;;0.60;0.60;;;5.10;99.90;;;;;;4988704;28;20037;-83
2023/01/14 05:33:01;;;;;;;0.45;0.45;;;5.00;99.90;;;;;;4987467;28;20056;-85
2023/01/14 05:35:26;;;;;;;;;;;4.90;99.90;;;;;;4987142;28;20038;-85
2023/01/14 05:37:52;;;;;;;0.50;0.50;;;5.00;99.90;;;;;;4987854;28;19928;-85
2023/01/14 05:40:18;;;;;;;0.60;0.60;;;4.80;99.90;;;;;;4988456;28;20096;-84
2023/01/14 05:45:37;;;;;;;0.60;0.60;;;4.90;99.90;;;;;;5002722;28;20054;-84
2023/01/14 05:48:04;;;;;;;0.40;0.40;;;5.00;99.90;;;;;;4987691;28;20042;-86
2023/01/14 05:50:30;;;;;;;0.40;0.40;;;4.90;99.90;;;;;;5015902;28;20042;-83
2023/01/14 05:52:56;;;;;;;0.40;0.40;;;4.90;99.90;;;;;;4994874;28;20488;-86
2023/01/14 05:55:22;;;;;;;0.50;0.50;;;4.90;99.90;;;;;;4999980;28;20078;-85
2023/01/14 05:57:48;;;;;;;1.15;1.05;;;4.90;99.90;;;;;;4990134;28;20122;-85
2023/01/14 06:08:29;;;;;;;0.60;0.60;;;5.20;99.90;;;;;;4999662;28;20046;-87
2023/01/14 06:10:55;;;;;;;0.60;0.60;;;5.10;99.90;;;;;;5006446;28;20046;-82
2023/01/14 06:13:22;;;;;;;0.60;0.60;;;5.10;99.90;;;;;;5022690;28;20046;-82
2023/01/14 06:15:51;;;;;;;0.60;0.60;;;5.10;99.90;;;;;;4995424;28;20042;-82
2023/01/14 06:18:21;;;;;;;0.50;0.50;;;5.10;99.90;;;;;;4996756;28;20046;-83
2023/01/14 06:20:48;;;;;;;0.60;0.60;;;5.10;99.90;;;;;;4975672;28;20045;-83
2023/01/14 06:23:14;;;;;;;0.50;0.50;;;5.10;99.90;;;;;;4994328;28;20129;-83
2023/01/14 06:25:43;;;;;;;0.73;0.73;;;5.00;99.90;;;;;;5001987;28;20181;-83
2023/01/14 06:28:08;;;;;;;0.65;0.65;;;5.00;99.90;;;;;;4994980;28;20057;-84
2023/01/14 06:30:34;;;;;;;0.60;0.60;;;5.10;99.90;;;;;;4977980;28;20038;-84
2023/01/14 06:33:06;;;;;;;0.50;0.50;;;5.10;99.90;;;;;;4998584;28;20056;-84
2023/01/14 06:35:33;;;;;;;0.50;0.50;;;5.00;99.90;;;;;;4994357;28;20042;-82
2023/01/14 06:37:59;;;;;;;0.50;0.50;;;5.00;99.90;;;;;;4992590;28;20137;-87
2023/01/14 06:40:24;;;;;;;0.52;0.52;;;5.00;99.90;;;;;;4962925;28;20614;-83
2023/01/14 06:42:54;;;;;;;0.52;0.52;;;5.00;99.90;;;;;;4990546;28;20034;-83
2023/01/14 06:45:20;;;;;;;0.57;0.57;;;5.00;99.90;;;;;;4994688;28;20046;-86
2023/01/14 06:47:46;;;;;;;0.55;0.55;;;5.10;99.90;;;;;;4976281;28;20508;-84
2023/01/14 06:50:13;;;;;;;0.70;0.70;;;5.30;99.90;;;;;;4993402;28;20046;-87
2023/01/14 06:52:39;;;;;;;0.40;0.40;;;5.00;99.90;;;;;;4992136;28;20038;-84
2023/01/14 06:55:06;;;;;;;0.50;0.50;;;5.00;99.90;;;;;;5009614;28;20486;-85
2023/01/14 06:57:31;;;;;;;0.60;0.60;;;5.00;99.90;;;;;;4992586;28;20041;-84
2023/01/14 06:59:57;;;;;;;0.50;0.50;;;5.10;99.90;;;;;;4990969;28;20042;-83
2023/01/14 07:02:23;;;;;;;0.60;0.60;;;5.20;99.90;;;;;;4995072;28;20169;-83
2023/01/14 07:04:49;;;;;;;0.60;0.60;;;5.10;99.90;;;;;;4971803;28;20092;-85
2023/01/14 07:07:15;;;;;;;1.35;1.08;;;5.10;99.90;;;;;;4975612;28;20053;-85
2023/01/14 07:09:40;;;;;;;0.50;0.50;;;5.10;99.90;;;;;;4989332;28;20043;-85
2023/01/14 07:12:06;;;;;;;0.70;0.70;;;5.10;99.90;;;;;;4995544;28;20050;-86
2023/01/14 07:14:32;;;;;;;0.50;0.50;;;5.10;99.90;;;;;;4989181;28;20096;-84
2023/01/14 07:16:57;;;;;;;1.40;1.27;;;5.30;99.90;;;;;;4996720;28;20124;-85
2023/01/14 07:19:23;;;;;;;0.60;0.60;;;5.20;99.90;;;;;;5009522;28;20038;-86
2023/01/14 07:21:49;;;;;;;1.85;1.75;;;5.50;99.90;;;;;;4990171;28;20037;-83
2023/01/14 07:24:15;;;;;;;0.45;0.45;;;5.30;99.90;;;;;;4972512;28;20046;-85
2023/01/14 07:26:40;;;;;;;;;;;5.20;99.90;;;;;;4990940;28;20113;-84
2023/01/14 07:29:06;;;;;;;0.90;0.90;;;5.30;99.90;;;;;;4989512;28;20001;-85
2023/01/14 07:31:32;;;;;;;1.08;1.02;;;5.30;99.90;;;;;;4993049;28;20038;-84
2023/01/14 07:33:57;;;;;;;0.70;0.70;;;5.30;99.90;;;;;;4974791;28;21089;-84
2023/01/14 07:36:23;;;;;;;0.57;0.57;;;5.30;99.90;;;;;;4988917;28;20443;-86
2023/01/14 07:38:48;;;;;;;0.75;0.75;;;5.40;99.90;;;;;;4991103;28;20042;-85
2023/01/14 07:41:20;;;;;;;1.33;1.33;;;5.40;99.90;;;;;;4989131;28;20134;-84
2023/01/14 07:43:45;;;;;;;0.60;0.60;;;5.50;99.90;;;;;;4991113;28;20050;-86
2023/01/14 07:46:11;;;;;;;0.50;0.50;;;5.40;99.90;;;;;;4988121;28;20046;-85
2023/01/14 07:48:37;;;;;;;0.50;0.50;;;5.40;99.90;;;;;;4971543;28;20049;-84
2023/01/14 07:51:03;;;;;;;;;;;5.40;99.90;;;;;;4990728;28;20042;-85
2023/01/14 07:53:29;;;;;;;0.50;0.50;;;5.40;99.90;;;;;;4977653;28;19917;-85
2023/01/14 07:55:55;;;;;;;0.50;0.50;;;5.50;99.90;;;;;;4984746;28;20480;-85
2023/01/14 07:58:21;;;;;;;0.60;0.60;;;5.50;99.90;;;;;;4983110;28;20119;-86
2023/01/14 08:00:47;;;;;;;;;;;5.50;99.90;;;;;;4971791;28;20495;-85
2023/01/14 08:03:13;;;;;;;0.50;0.50;;;5.50;99.90;;;;;;4974514;28;19922;-85
2023/01/14 08:05:39;;;;;;;0.60;0.60;;;5.50;99.90;;;;;;5009220;28;20053;-85
2023/01/14 08:08:05;;;;;;;0.40;0.40;;;5.70;99.90;;;;;;4987820;28;20042;-84
2023/01/14 08:10:31;;;;;;;0.50;0.50;;;5.60;99.90;;;;;;4989950;28;20034;-84
2023/01/14 08:12:56;;;;;;;1.13;1.13;;;5.50;99.90;;;;;;4990010;28;20049;-85
2023/01/14 08:15:23;;;;;;;0.60;0.60;;;5.60;99.90;;;;;;4991505;28;20041;-85
2023/01/14 08:17:49;;;;;;;0.55;0.55;;;5.60;99.90;;;;;;4988742;28;20463;-84
2023/01/14 08:20:15;;;;;;;0.60;0.60;;;5.60;99.90;;;;;;4989486;28;22169;-86
2023/01/14 08:22:41;;;;;;;0.60;0.60;;;5.60;99.90;;;;;;4990036;28;20046;-85
2023/01/14 08:25:07;;;;;;;0.52;0.52;;;5.60;99.90;;;;;;4996742;28;20057;-83
2023/01/14 08:27:33;;;;;;;0.50;0.50;;;5.60;99.90;;;;;;4972370;28;20038;-86
2023/01/14 08:29:59;;;;;;;0.50;0.50;;;5.70;99.90;;;;;;4974855;28;20053;-87
2023/01/14 08:32:25;;;;;;;1.10;0.80;;;5.70;99.90;;;;;;4988073;28;20042;-88
2023/01/14 08:34:51;;;;;;;1.67;1.58;;;5.70;99.90;;;;;;4973449;28;20120;-83
2023/01/14 08:37:17;;;;;;;0.50;0.50;;;5.70;99.90;;;;;;4989496;28;20603;-85
2023/01/14 08:39:42;;;;;;;0.52;0.52;;;5.80;99.90;;;;;;4988827;28;20038;-84
2023/01/14 08:42:08;;;;;;;0.50;0.50;;;5.80;99.90;;;;;;4970296;28;20807;-84
2023/01/14 08:44:34;;;;;;;0.50;0.50;;;5.70;99.90;;;;;;4972607;28;20103;-85
2023/01/14 08:47:00;;;;;;;1.98;1.70;;;5.80;99.90;;;;;;4973392;28;20062;-87
2023/01/14 08:49:25;;;;;;;0.60;0.60;;;5.70;99.90;;;;;;4975517;28;20061;-88
2023/01/14 08:51:57;;;;;;;2.60;1.48;;;5.70;99.90;;;;;;4974382;28;20042;-86
2023/01/14 08:54:23;;;;;;;0.50;0.50;;;5.70;99.90;;;;;;4986835;28;20035;-86
2023/01/14 08:56:49;;;;;;;0.60;0.60;;;5.70;99.90;;;;;;4971086;28;20042;-88
2023/01/14 08:59:15;;;;;;;0.95;0.95;;;6.20;99.90;;;;;;4973652;28;20042;-87
2023/01/14 09:01:40;;;;;;;0.50;0.50;;;5.70;99.90;;;;;;4990318;28;20049;-87
2023/01/14 09:04:06;;;;;;;0.40;0.40;;;5.70;99.90;;;;;;4993333;28;20053;-85
2023/01/14 09:17:04;;;;;;;0.50;0.50;;;5.70;99.90;;;;;;4979248;28;20073;-86
2023/01/14 09:17:33;;;;;;;;;;;5.70;99.90;;;;;;5004060;28;20043;-87
2023/01/14 09:20:01;;;;;;;0.60;0.60;;;5.70;99.90;;;;;;4989664;28;19925;-84
2023/01/14 09:22:29;;;;;;;0.60;0.60;;;5.60;99.90;;;;;;4978629;28;20161;-86
2023/01/14 09:24:55;;;;;;;0.43;0.43;;;5.60;99.90;;;;;;4989831;28;20049;-83
2023/01/14 09:27:22;;;;;;;;;;;5.60;99.90;;;;;;4986674;28;20128;-84
2023/01/14 09:29:48;;;;;;;0.55;0.55;;;5.60;99.90;;;;;;4991859;28;20264;-84
2023/01/14 09:32:14;;;;;;;;;;;5.70;99.90;;;;;;4987852;28;20073;-86
2023/01/14 09:34:49;;;;;;;0.50;0.50;;;5.60;99.90;;;;;;4989633;28;19917;-84
2023/01/14 09:37:21;;;;;;;0.50;0.50;;;5.60;99.90;;;;;;4987799;28;20355;-85
2023/01/14 09:39:47;;;;;;;0.57;0.57;;;5.60;99.90;;;;;;4972924;28;20444;-84
2023/01/14 09:42:19;;;;;;;0.68;0.68;;;5.70;99.90;;;;;;4988358;28;20129;-84
2023/01/14 09:44:45;;;;;;;0.60;0.60;;;5.70;99.90;;;;;;4971348;28;20064;-84
2023/01/14 09:47:14;;;;;;;0.77;0.77;;;5.60;99.90;;;;;;4974080;28;20050;-87
2023/01/14 09:49:41;;;;;;;0.60;0.60;;;5.60;99.90;;;;;;4989179;28;20691;-84
2023/01/14 09:52:27;;;;;;;0.80;0.80;;;5.60;99.90;;;;;;4982991;28;20042;-84
2023/01/14 09:55:07;;;;;;;0.77;0.77;;;5.60;99.90;;;;;;5003805;28;20101;-85
2023/01/14 09:57:57;;;;;;;0.60;0.60;;;5.60;99.90;;;;;;4986228;28;20050;-87
2023/01/14 10:00:42;;;;;;;1.67;1.63;;;5.60;99.90;;;;;;4983655;28;20069;-85
2023/01/14 10:03:17;;;;;;;0.82;0.82;;;5.60;99.90;;;;;;4983281;28;20046;-86
2023/01/14 10:05:50;;;;;;;1.17;1.15;;;5.60;99.90;;;;;;4970576;28;20456;-86
2023/01/14 10:08:16;;;;;;;1.58;0.55;;;5.60;99.90;;;;;;5003776;28;20050;-85
2023/01/14 10:10:44;;;;;;;0.60;0.60;;;5.60;99.90;;;;;;4973451;28;20045;-84
2023/01/14 10:13:17;;;;;;;0.75;0.75;;;5.70;99.90;;;;;;4970376;28;20034;-85
2023/01/14 10:15:48;;;;;;;0.50;0.50;;;5.70;99.90;;;;;;4973105;28;20050;-85
2023/01/14 10:18:44;;;;;;;0.40;0.40;;;5.70;99.90;;;;;;4993716;28;20395;-84
2023/01/14 10:21:29;;;;;;;4.43;4.13;;;5.70;99.90;;;;;;4969051;28;20435;-84
2023/01/14 10:23:55;;;;;;;1.83;1.75;;;5.70;99.90;;;;;;4973038;28;20357;-85
2023/01/14 10:26:22;;;;;;;0.50;0.50;;;5.80;99.90;;;;;;4982770;28;20050;-87
2023/01/14 10:28:51;;;;;;;0.60;0.60;;;6.20;99.90;;;;;;4974356;28;20042;-87
2023/01/14 10:31:22;;;;;;;0.50;0.50;;;5.90;99.90;;;;;;4990136;28;20112;-88
2023/01/14 10:33:48;;;;;;;0.80;0.80;;;5.90;99.90;;;;;;5003420;28;20091;-87
2023/01/14 10:36:21;;;;;;;0.50;0.50;;;5.90;99.90;;;;;;4987205;28;20052;-88
2023/01/14 10:38:48;;;;;;;0.50;0.50;;;6.00;99.90;;;;;;4994991;28;20053;-87
2023/01/14 10:41:15;;;;;;;0.57;0.57;;;6.00;99.90;;;;;;4994300;28;20126;-87
2023/01/14 10:43:44;;;;;;;0.60;0.60;;;6.20;99.90;;;;;;5010024;28;20062;-87
2023/01/14 10:46:18;;;;;;;0.50;0.50;;;6.50;99.90;;;;;;4995155;28;20050;-87
2023/01/14 10:48:54;;;;;;;0.50;0.50;;;6.00;99.90;;;;;;4973844;28;20034;-88
2023/01/14 10:51:47;;;;;;;0.50;0.50;;;6.20;99.90;;;;;;4976188;28;20097;-87
2023/01/14 10:54:21;;;;;;;0.50;0.50;;;6.30;99.90;;;;;;4988540;28;20121;-87
2023/01/14 10:57:11;;;;;;;0.50;0.50;;;6.50;99.90;;;;;;4994350;28;20137;-89
2023/01/14 10:59:44;;;;;;;0.50;0.50;;;6.70;99.90;;;;;;4987891;28;20045;-89
2023/01/14 11:02:30;;;;;;;0.50;0.50;;;6.70;99.90;;;;;;4973950;28;20058;-88
2023/01/14 11:04:57;;;;;;;0.50;0.50;;;6.50;99.90;;;;;;4993539;28;20050;-88
2023/01/14 11:07:30;;;;;;;0.52;0.52;;;6.90;99.90;;;;;;5000479;28;20093;-90
2023/01/14 11:09:58;;;;;;;0.60;0.60;;;6.90;99.90;;;;;;4995073;28;20038;-89
2023/01/14 11:12:29;;;;;;;0.50;0.50;;;6.60;99.90;;;;;;5000481;28;20030;-89
2023/01/14 11:14:55;;;;;;;0.43;0.43;;;7.00;99.90;;;;;;4985046;28;20033;-89
2023/01/14 11:17:27;;;;;;;0.90;0.90;;;6.90;99.90;;;;;;4994177;28;20531;-88
2023/01/14 11:20:21;;;;;;;0.40;0.40;;;6.60;99.90;;;;;;4974563;28;20046;-89
2023/01/14 11:23:14;;;;;;;0.47;0.47;;;6.70;99.90;;;;;;4994995;28;20046;-90
2023/01/14 11:25:41;;;;;;;0.50;0.50;;;6.80;99.90;;;;;;4995538;28;20877;-89
2023/01/14 11:28:07;;;;;;;0.50;0.50;;;6.90;99.90;;;;;;4996750;28;20121;-87
2023/01/14 11:30:33;;;;;;;;;;;6.60;99.90;;;;;;4962360;28;20043;-89
2023/01/14 11:32:59;;;;;;;1.13;1.10;;;6.70;99.90;;;;;;4990150;28;20276;-88
2023/01/14 11:35:32;;;;;;;0.60;0.60;;;6.70;99.90;;;;;;4957471;28;20440;-85
2023/01/14 11:38:01;;;;;;;0.50;0.50;;;6.70;99.90;;;;;;4992484;28;20045;-88
2023/01/14 11:43:22;;;;;;;0.60;0.60;;;6.70;99.90;;;;;;4991069;28;20038;-86
2023/01/14 11:46:12;;;;;;;0.40;0.40;;;6.70;99.90;;;;;;4987717;28;20444;-86
2023/01/14 11:48:40;;;;;;;0.40;0.40;;;6.70;99.90;;;;;;4975783;28;20042;-85
2023/01/14 11:51:17;;;;;;;0.57;0.57;;;6.90;99.90;;;;;;4976293;28;20062;-85
2023/01/14 11:53:51;;;;;;;0.68;0.68;;;6.80;99.90;;;;;;4989087;28;20061;-85
2023/01/14 11:56:30;;;;;;;0.40;0.40;;;6.70;99.90;;;;;;4967098;28;20495;-85
2023/01/14 11:58:56;;;;;;;0.73;0.73;;;6.70;99.90;;;;;;5002867;28;20049;-85
2023/01/14 12:01:38;;;;;;;0.52;0.52;;;6.80;99.90;;;;;;4988202;28;20038;-85
2023/01/14 12:04:15;;;;;;;0.50;0.50;;;6.80;99.90;;;;;;4987022;28;20500;-85
2023/01/14 12:07:12;;;;;;;0.80;0.80;;;6.80;99.90;;;;;;4999107;28;20121;-85
2023/01/14 12:09:48;;;;;;;0.60;0.60;;;6.90;99.90;;;;;;4969989;28;20044;-86
2023/01/14 12:12:20;;;;;;;0.40;0.40;;;7.00;99.90;;;;;;4977329;28;20117;-85
2023/01/14 12:17:49;;;;;;;0.63;0.63;;;6.70;99.90;;;;;;5014269;28;20106;-84
2023/01/14 12:20:19;;;;;;;0.43;0.43;;;6.80;99.90;;;;;;4947066;28;20288;-86
2023/01/14 12:23:00;;;;;;;0.50;0.50;;;6.80;99.90;;;;;;4992975;28;20050;-86
2023/01/14 12:25:40;;;;;;;0.85;0.85;;;6.70;99.90;;;;;;4977690;28;20369;-85
2023/01/14 12:28:17;;;;;;;0.50;0.50;;;6.70;99.90;;;;;;4985695;28;20043;-86
2023/01/14 12:30:46;;;;;;;;;;;6.70;99.90;;;;;;5011669;28;20046;-86
2023/01/14 12:33:35;;;;;;;0.50;0.50;;;6.70;99.90;;;;;;4972728;28;20295;-86
2023/01/14 12:36:23;;;;;;;0.50;0.50;;;6.80;99.90;;;;;;4985675;28;20042;-85
2023/01/14 12:47:44;;;;;;;0.50;0.50;;;7.10;99.90;;;;;;4992532;28;20050;-85
2023/01/14 12:50:13;;;;;;;0.50;0.50;;;7.30;99.90;;;;;;4980230;28;20061;-85
2023/01/14 12:52:48;;;;;;;0.50;0.50;;;7.00;99.90;;;;;;4995808;28;20046;-86
2023/01/14 12:55:21;;;;;;;0.50;0.50;;;7.10;99.90;;;;;;4995220;28;20042;-85
2023/01/14 12:57:50;;;;;;;0.43;0.43;;;7.10;99.90;;;;;;4968138;28;20046;-85
2023/01/14 13:00:26;;;;;;;0.50;0.50;;;7.20;99.90;;;;;;4990795;28;20050;-86
2023/01/14 13:02:54;;;;;;;;;;;7.20;99.90;;;;;;4992252;28;20436;-85
2023/01/14 13:05:39;;;;;;;0.50;0.50;;;7.20;99.90;;;;;;4982214;28;19918;-86
2023/01/14 13:08:28;;;;;;;0.60;0.60;;;7.20;99.90;;;;;;4986107;28;20397;-86
2023/01/14 13:11:17;;;;;;;0.60;0.60;;;7.30;99.90;;;;;;5002729;28;20038;-85
2023/01/14 13:13:50;;;;;;;0.40;0.40;;;7.30;99.90;;;;;;4972717;28;20030;-85
2023/01/14 13:16:28;;;;;;;0.52;0.52;;;7.50;99.90;;;;;;4975486;28;20112;-85
2023/01/14 13:18:59;;;;;;;0.50;0.50;;;7.50;99.90;;;;;;4992720;28;20054;-85
2023/01/14 13:21:54;;;;;;;0.60;0.60;;;7.50;99.90;;;;;;4991790;28;20108;-85
2023/01/14 13:24:33;;;;;;;0.50;0.50;;;7.60;99.90;;;;;;4978205;28;20053;-85
2023/01/14 13:27:02;;;;;;;0.50;0.50;;;7.60;99.90;;;;;;4976000;28;20045;-86
2023/01/14 13:29:32;;;;;;;0.60;0.60;;;7.60;99.90;;;;;;5008809;28;20034;-87
2023/01/14 13:32:00;;;;;;;0.47;0.47;;;7.70;99.90;;;;;;4997521;28;20072;-85
2023/01/14 13:34:47;;;;;;;0.45;0.45;;;7.80;99.90;;;;;;4986149;28;20034;-85
2023/01/14 13:37:20;;;;;;;0.40;0.40;;;7.70;99.90;;;;;;5002040;28;20137;-87
2023/01/14 13:39:55;;;;;;;0.47;0.47;;;7.80;99.90;;;;;;5012012;28;20050;-88
2023/01/14 13:42:28;;;;;;;0.40;0.40;;;7.90;99.90;;;;;;4959896;28;20121;-90
2023/01/14 13:44:55;;;;;;;0.60;0.60;;;8.30;99.90;;;;;;4989027;28;20109;-89
2023/01/14 13:47:28;;;;;;;0.40;0.40;;;8.20;99.90;;;;;;4989490;28;20042;-88
2023/01/14 13:50:01;;;;;;;0.40;0.40;;;8.10;99.90;;;;;;4991619;28;20034;-89
2023/01/14 13:52:33;;;;;;;0.40;0.40;;;8.30;99.90;;;;;;4976370;28;21967;-89
2023/01/14 13:55:04;;;;;;;0.40;0.40;;;8.10;99.90;;;;;;4985674;28;20174;-90
2023/01/14 13:57:42;;;;;;;0.43;0.43;;;8.10;99.90;;;;;;4962174;28;20046;-90
2023/01/14 14:00:17;;;;;;;0.43;0.43;;;8.20;99.90;;;;;;4972486;28;20443;-87
2023/01/14 14:02:47;;;;;;;0.30;0.30;;;8.20;99.90;;;;;;4991749;28;20046;-88
2023/01/14 14:05:16;;;;;;;0.32;0.32;;;8.20;99.90;;;;;;4991187;28;20046;-89